Portada
METAR-TAF:

METAR-TAF

Aeropuertos :

Aeropuerto de Copenhague-Kastrup

Copenhague, Dinamarca

latitud: 55-37N, longitud: 012-39E, altitud: 5 m

Observación

El informe se hizo hace 19 minutos, a las 00:50 UTC
Viento 5 kt del este-sureste
Temperatura 18°C
Humedad 88%
Presión 1024 hPa
Visibilidad 10 km o más

METAR: EKCH 070050Z AUTO 12005KT 9999 BKN150/// 18/16 Q1024 NOSIG

Hora: 03:09 (01:09 UTC)

Pronóstico

El informe se hizo hace 1 hora y 1 minutos, a las 00:08 UTC
Pronóstico válido del 07 a las 00 UTC al 07 a las 24 UTC
Viento 8 kt del sureste
Visibilidad 10 km o más
sin nubes por debajo de 1500 m y sin presencia de cumulonimbus.
Evolucionando progresivamente
del 07 a las 09 UTC al 07 a las 12 UTC
Viento 10 kt del sur
Evolucionando progresivamente
del 07 a las 17 UTC al 07 a las 20 UTC
Viento 6 kt del este

TAF: EKCH 070008Z 0700/0724 13008KT CAVOK BECMG 0709/0712 19010KT BECMG 0717/0720 10006KT

Observaciones y pronósticos meteorológicos de más de 4000 aeropuertos (mensajes METAR y TAF).

Los puntos amarillos y rojos representan las estaciones disponibles.

Ponga el ratón en el punto deseado para ver el nombre de la estación.

Haga clic para ver las observaciones y los pronósticos meteorológicos.

Para cambiar el mapa : haga clic en los botones verdes con una cruz de color negro para hacer un zoom, en el botón verde con un guión para alejar o en las flechas verdes para mapas adyacentes.


METAR-TAF: